createdAt,value
2022-11-20T00:04:47.016Z,96490.52
2022-11-20T00:07:13.933Z,96485.23
2022-11-20T00:09:40.703Z,96481.29
2022-11-20T00:12:07.409Z,96469.89
2022-11-20T00:14:34.145Z,96471.08
2022-11-20T00:17:00.751Z,96470.13
2022-11-20T00:19:27.400Z,96465.63
2022-11-20T00:21:55.780Z,96458.85
2022-11-20T00:24:22.291Z,96452.97
2022-11-20T00:26:48.851Z,96443.14
2022-11-20T00:29:16.091Z,96439.56
2022-11-20T00:31:42.578Z,96438.89
2022-11-20T00:34:10.043Z,96430.23
2022-11-20T00:36:36.593Z,96426.85
2022-11-20T00:39:03.214Z,96421.03
2022-11-20T00:41:30.470Z,96422.39
2022-11-20T00:43:57.784Z,96428.42
2022-11-20T00:46:25.671Z,96433.64
2022-11-20T00:48:52.551Z,96437.98
2022-11-20T00:51:20.350Z,96440.85
2022-11-20T00:53:46.922Z,96438.41
2022-11-20T00:56:15.291Z,96435.05
2022-11-20T00:58:43.381Z,96429.73
2022-11-20T01:01:14.407Z,96425.64
2022-11-20T01:03:42.539Z,96427.70
2022-11-20T01:06:14.837Z,96429.40
2022-11-20T01:08:41.425Z,96433.17
2022-11-20T01:11:09.904Z,96433.79
2022-11-20T01:13:40.025Z,96427.05
2022-11-20T01:16:14.391Z,96424.29
2022-11-20T01:18:42.629Z,96424.80
2022-11-20T01:21:11.311Z,96414.98
2022-11-20T01:23:38.916Z,96402.78
2022-11-20T01:26:07.211Z,96392.31
2022-11-20T01:28:34.381Z,96391.11
2022-11-20T01:31:01.136Z,96384.56
2022-11-20T01:33:28.178Z,96382.43
2022-11-20T01:36:03.672Z,96378.77
2022-11-20T01:38:30.230Z,96368.86
2022-11-20T01:40:56.800Z,96369.64
2022-11-20T01:43:24.146Z,96363.66
2022-11-20T01:46:04.488Z,96357.81
2022-11-20T01:48:37.051Z,96358.41
2022-11-20T01:51:04.675Z,96359.02
2022-11-20T01:53:32.691Z,96357.12
2022-11-20T01:56:00.836Z,96346.60
2022-11-20T01:58:30.704Z,96340.60
2022-11-20T02:00:57.319Z,96336.20
2022-11-20T02:03:24.500Z,96327.77
2022-11-20T02:05:50.980Z,96324.00
2022-11-20T02:08:18.698Z,96323.61
2022-11-20T02:10:45.712Z,96317.12
2022-11-20T02:13:31.247Z,96310.65
2022-11-20T02:15:57.866Z,96308.17
2022-11-20T02:18:24.871Z,96313.13
2022-11-20T02:20:55.489Z,96312.90
2022-11-20T02:23:37.004Z,96310.48
2022-11-20T02:26:23.738Z,96310.30
2022-11-20T02:29:04.458Z,96306.75
2022-11-20T02:31:35.955Z,96309.08
2022-11-20T02:34:02.605Z,96313.65
2022-11-20T02:36:31.351Z,96311.95
2022-11-20T02:38:57.882Z,96306.48
2022-11-20T02:41:31.016Z,96302.96
2022-11-20T02:43:57.832Z,96289.66
2022-11-20T02:46:24.305Z,96269.08
2022-11-20T02:48:50.867Z,96238.97
2022-11-20T02:51:17.425Z,96230.41
2022-11-20T02:53:43.955Z,96243.88
2022-11-20T02:56:10.803Z,96252.72
2022-11-20T02:58:37.383Z,96249.39
2022-11-20T03:01:04.067Z,96251.85
2022-11-20T03:03:30.534Z,96243.73
2022-11-20T03:05:59.324Z,96242.34
2022-11-20T03:08:26.646Z,96247.41
2022-11-20T03:10:53.192Z,96247.23
2022-11-20T03:13:19.876Z,96247.48
2022-11-20T03:15:46.427Z,96247.02
2022-11-20T03:18:14.116Z,96249.16
2022-11-20T03:20:40.673Z,96238.55
2022-11-20T03:23:07.214Z,96240.29
2022-11-20T03:25:33.795Z,96247.14
2022-11-20T03:28:00.333Z,96236.33
2022-11-20T03:30:30.540Z,96225.84
2022-11-20T03:32:57.497Z,96214.36
2022-11-20T03:35:24.337Z,96208.77
2022-11-20T03:37:50.978Z,96194.67
2022-11-20T03:40:17.562Z,96181.97
2022-11-20T03:42:46.917Z,96177.84
2022-11-20T03:45:14.343Z,96150.61
2022-11-20T03:47:40.955Z,96123.63
2022-11-20T03:50:08.058Z,96142.11
2022-11-20T03:52:34.679Z,96184.34
2022-11-20T03:55:01.489Z,96188.77
2022-11-20T03:57:57.973Z,96189.30
2022-11-20T04:00:24.413Z,96180.46
2022-11-20T04:02:50.884Z,96182.55
2022-11-20T04:05:17.500Z,96193.64
2022-11-20T04:07:44.154Z,96196.17
2022-11-20T04:10:10.627Z,96200.34
2022-11-20T04:12:37.143Z,96183.06
2022-11-20T04:15:03.794Z,96182.47
2022-11-20T04:17:30.231Z,96181.72
2022-11-20T04:19:56.838Z,96183.85
2022-11-20T04:22:23.412Z,96183.42
2022-11-20T04:24:49.871Z,96190.25
2022-11-20T04:27:16.525Z,96186.37
2022-11-20T04:29:43.148Z,96182.08
2022-11-20T04:32:09.614Z,96183.27
2022-11-20T04:34:36.183Z,96187.47
2022-11-20T04:37:02.806Z,96187.41
2022-11-20T04:39:29.459Z,96174.65
2022-11-20T04:42:14.920Z,96174.95
2022-11-20T04:44:41.466Z,96171.29
2022-11-20T04:47:07.991Z,96167.86
2022-11-20T04:49:34.752Z,96165.08
2022-11-20T04:52:01.474Z,96160.43
2022-11-20T04:54:28.027Z,96159.77
2022-11-20T04:56:54.646Z,96156.04
2022-11-20T04:59:21.518Z,96142.65
2022-11-20T05:01:48.513Z,96129.63
2022-11-20T05:04:15.025Z,96130.23
2022-11-20T05:06:41.508Z,96133.21
2022-11-20T05:09:08.050Z,96134.40
2022-11-20T05:11:34.658Z,96127.75
2022-11-20T05:14:01.286Z,96117.96
2022-11-20T05:16:27.877Z,96115.61
2022-11-20T05:18:54.947Z,96111.63
2022-11-20T05:21:22.025Z,96110.05
2022-11-20T05:23:48.962Z,96101.20
2022-11-20T05:26:16.991Z,96098.50
2022-11-20T05:28:44.019Z,96098.23
2022-11-20T05:31:11.734Z,96089.11
2022-11-20T05:33:40.068Z,96083.64
2022-11-20T05:36:06.904Z,96079.11
2022-11-20T05:38:33.875Z,96081.38
2022-11-20T05:41:04.954Z,96087.16
2022-11-20T05:43:35.263Z,96087.78
2022-11-20T05:46:02.013Z,96091.63
2022-11-20T05:48:28.506Z,96109.27
2022-11-20T05:50:56.976Z,96114.45
2022-11-20T05:53:24.206Z,96121.16
2022-11-20T05:56:04.520Z,96130.32
2022-11-20T05:58:31.527Z,96129.13
2022-11-20T06:01:05.698Z,96130.05
2022-11-20T06:03:32.444Z,96126.59
2022-11-20T06:05:59.683Z,96124.20
2022-11-20T06:08:26.178Z,96125.59
2022-11-20T06:10:52.737Z,96126.81
2022-11-20T06:13:19.494Z,96133.00
2022-11-20T06:15:53.111Z,96131.61
2022-11-20T06:18:20.225Z,96123.13
2022-11-20T06:24:15.257Z,96122.11
2022-11-20T06:26:44.347Z,96125.29
2022-11-20T06:29:11.140Z,96124.88
2022-11-20T06:31:38.242Z,96127.66
2022-11-20T06:34:06.564Z,96125.90
2022-11-20T06:36:33.542Z,96121.33
2022-11-20T06:39:00.602Z,96121.08
2022-11-20T06:41:30.437Z,96125.41
2022-11-20T06:43:56.957Z,96131.50
2022-11-20T06:46:23.603Z,96137.33
2022-11-20T06:48:52.012Z,96132.14
2022-11-20T06:51:20.637Z,96136.02
2022-11-20T06:53:47.180Z,96144.36
2022-11-20T06:56:13.734Z,96148.94
2022-11-20T06:58:40.351Z,96154.65
2022-11-20T07:01:09.327Z,96159.21
2022-11-20T07:03:36.386Z,96158.79
2022-11-20T07:06:03.515Z,96161.92
2022-11-20T07:08:30.517Z,96164.05
2022-11-20T07:11:00.582Z,96159.08
2022-11-20T07:13:28.121Z,96152.88
2022-11-20T07:15:55.291Z,96154.09
2022-11-20T07:18:21.925Z,96153.37
2022-11-20T07:20:48.360Z,96153.27
2022-11-20T07:23:14.884Z,96152.77
2022-11-20T07:25:41.556Z,96154.14
2022-11-20T07:28:56.841Z,96152.07
2022-11-20T07:31:23.504Z,96153.02
2022-11-20T07:33:50.442Z,96151.30
2022-11-20T07:36:16.921Z,96147.61
2022-11-20T07:38:43.461Z,96152.59
2022-11-20T07:41:10.059Z,96147.39
2022-11-20T07:43:41.008Z,96138.98
2022-11-20T07:46:08.000Z,96145.50
2022-11-20T07:48:34.431Z,96147.22
2022-11-20T07:51:00.938Z,96156.01
2022-11-20T07:53:27.523Z,96153.63
2022-11-20T07:55:54.130Z,96155.92
2022-11-20T07:58:21.230Z,96158.66
2022-11-20T08:00:47.799Z,96163.18
2022-11-20T08:03:14.420Z,96169.17
2022-11-20T08:05:41.111Z,96172.45
2022-11-20T08:08:08.343Z,96160.36
2022-11-20T08:10:34.931Z,96168.41
2022-11-20T08:13:20.308Z,96179.30
2022-11-20T08:15:53.096Z,96180.41
2022-11-20T08:18:35.169Z,96183.10
2022-11-20T08:21:02.592Z,96186.42
2022-11-20T08:23:29.201Z,96187.67
2022-11-20T08:25:55.656Z,96186.25
2022-11-20T08:28:22.696Z,96186.63
2022-11-20T08:30:50.351Z,96189.20
2022-11-20T08:33:17.933Z,96186.18
2022-11-20T08:35:44.859Z,96178.15
2022-11-20T08:38:11.458Z,96177.44
2022-11-20T08:40:37.994Z,96166.35
2022-11-20T08:43:04.806Z,96181.23
2022-11-20T08:45:34.507Z,96178.04
2022-11-20T08:48:02.373Z,96177.81
2022-11-20T08:50:29.046Z,96188.88
2022-11-20T08:52:55.616Z,96199.45
2022-11-20T08:55:22.095Z,96197.47
2022-11-20T08:57:51.028Z,96201.45
2022-11-20T09:00:17.938Z,96211.36
2022-11-20T09:02:44.453Z,96210.62
2022-11-20T09:05:10.977Z,96208.20
2022-11-20T09:07:37.650Z,96206.11
2022-11-20T09:10:23.101Z,96209.46
2022-11-20T09:12:52.117Z,96198.82
2022-11-20T09:15:19.275Z,96192.02
2022-11-20T09:18:03.050Z,96202.77
2022-11-20T09:20:30.028Z,96205.86
2022-11-20T09:22:57.328Z,96199.33
2022-11-20T09:25:24.192Z,96206.21
2022-11-20T09:28:00.051Z,96205.81
2022-11-20T09:30:27.188Z,96193.31
2022-11-20T09:32:54.079Z,96192.77
2022-11-20T09:35:20.714Z,96189.55
2022-11-20T09:37:47.275Z,96192.17
2022-11-20T09:40:19.501Z,96195.89
2022-11-20T09:42:57.012Z,96191.86
2022-11-20T09:45:29.096Z,96190.04
2022-11-20T09:48:04.848Z,96186.38
2022-11-20T09:50:41.572Z,96178.45
2022-11-20T09:53:25.476Z,96175.33
2022-11-20T09:55:52.540Z,96171.92
2022-11-20T09:58:40.879Z,96172.23
2022-11-20T10:01:12.633Z,96162.46
2022-11-20T10:03:39.190Z,96160.67
2022-11-20T10:06:09.054Z,96174.98
2022-11-20T10:08:52.224Z,96178.77
2022-11-20T10:11:24.031Z,96170.69
2022-11-20T10:14:16.601Z,96163.45
2022-11-20T10:16:48.745Z,96168.25
2022-11-20T10:19:24.731Z,96162.42
2022-11-20T10:21:58.717Z,96154.58
2022-11-20T10:24:34.408Z,96159.63
2022-11-20T10:27:04.281Z,96159.95
2022-11-20T10:29:35.322Z,96160.01
2022-11-20T10:32:19.510Z,96160.88
2022-11-20T10:34:46.056Z,96157.52
2022-11-20T10:37:15.199Z,96163.95
2022-11-20T10:39:44.857Z,96169.52
2022-11-20T10:42:14.943Z,96163.72
2022-11-20T10:45:05.776Z,96158.52
2022-11-20T10:47:33.652Z,96167.38
2022-11-20T10:50:06.447Z,96168.80
2022-11-20T10:52:43.496Z,96167.81
2022-11-20T10:55:13.194Z,96163.06
2022-11-20T10:57:58.261Z,96162.31
2022-11-20T11:00:25.051Z,96154.29
2022-11-20T11:02:53.593Z,96156.10
2022-11-20T11:05:55.967Z,96158.44
2022-11-20T11:08:23.435Z,96169.77
2022-11-20T11:10:53.108Z,96167.68
2022-11-20T11:16:33.922Z,96158.13
2022-11-20T11:19:07.649Z,96154.50
2022-11-20T11:21:34.633Z,96157.63
2022-11-20T11:24:19.848Z,96173.21
2022-11-20T11:26:59.767Z,96168.65
2022-11-20T11:29:56.924Z,96157.42
2022-11-20T11:32:24.036Z,96163.23
2022-11-20T11:35:02.954Z,96164.67
2022-11-20T11:37:48.755Z,96157.31
2022-11-20T11:40:25.542Z,96157.73
2022-11-20T11:43:00.540Z,96163.52
2022-11-20T11:45:27.556Z,96167.96
2022-11-20T11:48:14.446Z,96165.59
2022-11-20T11:50:48.954Z,96165.04
2022-11-20T11:53:17.632Z,96160.39
2022-11-20T11:55:44.254Z,96162.30
2022-11-20T11:58:19.097Z,96167.88
2022-11-20T12:01:05.922Z,96178.88
2022-11-20T12:03:38.653Z,96168.73
2022-11-20T12:06:15.356Z,96169.91
2022-11-20T12:08:57.156Z,96174.86
2022-11-20T12:11:29.752Z,96170.66
2022-11-20T12:14:13.884Z,96167.96
2022-11-20T12:16:40.633Z,96167.05
2022-11-20T12:22:01.964Z,96167.15
2022-11-20T12:24:30.764Z,96166.61
2022-11-20T12:26:57.254Z,96165.69
2022-11-20T12:29:42.944Z,96163.00
2022-11-20T12:32:15.393Z,96158.56
2022-11-20T12:34:48.858Z,96167.05
2022-11-20T12:37:27.762Z,96176.06
2022-11-20T12:40:00.913Z,96182.77
2022-11-20T12:42:59.387Z,96184.66
2022-11-20T12:45:44.895Z,96188.39
2022-11-20T12:48:11.436Z,96180.88
2022-11-20T12:50:47.578Z,96173.73
2022-11-20T12:53:24.649Z,96174.33
2022-11-20T12:55:54.422Z,96179.69
2022-11-20T12:58:21.146Z,96187.16
2022-11-20T13:01:02.204Z,96185.14
2022-11-20T13:03:32.227Z,96178.47
2022-11-20T13:08:52.391Z,96172.81
2022-11-20T13:11:40.165Z,96181.19
2022-11-20T13:14:26.483Z,96184.98
2022-11-20T13:17:03.342Z,96175.66
2022-11-20T13:19:33.001Z,96173.64
2022-11-20T13:22:05.777Z,96177.79
2022-11-20T13:24:33.566Z,96185.89
2022-11-20T13:27:01.177Z,96180.84
2022-11-20T13:29:28.001Z,96179.18
2022-11-20T13:32:08.018Z,96178.95
2022-11-20T13:34:37.173Z,96173.67
2022-11-20T13:37:06.632Z,96174.97
2022-11-20T13:39:34.896Z,96174.77
2022-11-20T13:42:03.262Z,96182.52
2022-11-20T13:44:34.829Z,96183.76
2022-11-20T13:47:01.605Z,96185.35
2022-11-20T13:49:30.538Z,96197.55
2022-11-20T13:52:06.226Z,96202.43
2022-11-20T13:54:53.320Z,96200.09
2022-11-20T13:57:29.028Z,96201.34
2022-11-20T13:59:55.482Z,96202.80
2022-11-20T14:02:23.405Z,96200.42
2022-11-20T14:04:51.752Z,96207.71
2022-11-20T14:07:19.734Z,96204.98
2022-11-20T14:09:50.981Z,96200.09
2022-11-20T14:12:19.082Z,96198.39
2022-11-20T14:14:50.719Z,96199.31
2022-11-20T14:17:19.110Z,96194.97
2022-11-20T14:19:46.864Z,96204.46
2022-11-20T14:22:21.019Z,96213.77
2022-11-20T14:24:48.235Z,96210.28
2022-11-20T14:27:17.050Z,96210.56
2022-11-20T14:29:44.865Z,96209.95
2022-11-20T14:32:11.750Z,96216.73
2022-11-20T14:34:40.855Z,96214.32
2022-11-20T14:37:16.593Z,96215.84
2022-11-20T14:39:49.388Z,96214.56
2022-11-20T14:42:21.289Z,96208.98
2022-11-20T14:44:48.598Z,96206.41
2022-11-20T14:47:17.936Z,96208.02
2022-11-20T14:49:45.073Z,96212.88
2022-11-20T14:52:14.243Z,96211.89
2022-11-20T14:54:45.296Z,96203.52
2022-11-20T14:57:21.443Z,96205.98
2022-11-20T14:59:48.567Z,96210.23
2022-11-20T15:02:15.360Z,96221.20
2022-11-20T15:04:48.842Z,96225.21
2022-11-20T15:07:29.488Z,96226.77
2022-11-20T15:10:00.255Z,96228.70
2022-11-20T15:12:26.846Z,96229.35
2022-11-20T15:14:53.631Z,96227.75
2022-11-20T15:17:20.351Z,96228.23
2022-11-20T15:19:46.858Z,96221.05
2022-11-20T15:22:14.429Z,96216.91
2022-11-20T15:24:40.919Z,96220.20
2022-11-20T15:27:08.325Z,96224.23
2022-11-20T15:29:34.947Z,96218.11
2022-11-20T15:32:01.607Z,96204.29
2022-11-20T15:34:28.442Z,96198.83
2022-11-20T15:36:54.992Z,96199.93
2022-11-20T15:39:21.442Z,96198.62
2022-11-20T15:41:50.735Z,96195.19
2022-11-20T15:44:17.376Z,96197.39
2022-11-20T15:46:45.532Z,96192.06
2022-11-20T15:49:15.460Z,96196.17
2022-11-20T15:51:44.003Z,96199.51
2022-11-20T15:54:12.383Z,96193.70
2022-11-20T15:56:39.034Z,96192.70
2022-11-20T15:59:05.713Z,96191.14
2022-11-20T16:01:32.351Z,96187.08
2022-11-20T16:03:59.616Z,96190.04
2022-11-20T16:06:26.146Z,96194.91
2022-11-20T16:08:52.580Z,96198.04
2022-11-20T16:11:19.070Z,96201.67
2022-11-20T16:14:04.218Z,96209.36
2022-11-20T16:16:35.065Z,96215.20
2022-11-20T16:19:01.961Z,96217.41
2022-11-20T16:21:31.391Z,96219.20
2022-11-20T16:24:01.856Z,96215.30
2022-11-20T16:26:28.324Z,96214.66
2022-11-20T16:29:04.089Z,96208.46
2022-11-20T16:31:30.613Z,96207.27
2022-11-20T16:33:58.172Z,96219.88
2022-11-20T16:36:26.020Z,96221.75
2022-11-20T16:38:57.049Z,96223.98
2022-11-20T16:41:31.739Z,96219.79
2022-11-20T16:43:59.391Z,96218.34
2022-11-20T16:46:26.975Z,96215.95
2022-11-20T16:48:54.579Z,96205.95
2022-11-20T16:51:21.861Z,96201.39
2022-11-20T16:53:49.979Z,96206.30
2022-11-20T16:56:18.346Z,96208.97
2022-11-20T16:58:45.344Z,96211.85
2022-11-20T17:01:13.632Z,96208.98
2022-11-20T17:03:40.939Z,96204.91
2022-11-20T17:06:17.570Z,96208.64
2022-11-20T17:08:44.656Z,96218.42
2022-11-20T17:11:12.287Z,96227.73
2022-11-20T17:13:40.043Z,96227.27
2022-11-20T17:16:08.238Z,96232.36
2022-11-20T17:18:35.043Z,96236.21
2022-11-20T17:21:04.720Z,96237.78
2022-11-20T17:23:35.926Z,96237.48
2022-11-20T17:26:06.892Z,96243.53
2022-11-20T17:28:34.388Z,96250.94
2022-11-20T17:31:01.657Z,96252.58
2022-11-20T17:33:28.598Z,96253.75
2022-11-20T17:35:55.129Z,96259.14
2022-11-20T17:38:21.953Z,96258.99
2022-11-20T17:40:48.439Z,96254.85
2022-11-20T17:43:15.105Z,96253.77
2022-11-20T17:45:42.272Z,96251.04
2022-11-20T17:48:08.791Z,96255.23
2022-11-20T17:50:35.335Z,96261.55
2022-11-20T17:53:01.964Z,96259.61
2022-11-20T17:55:54.222Z,96263.45
2022-11-20T17:58:22.044Z,96260.25
2022-11-20T18:00:48.482Z,96260.41
2022-11-20T18:03:16.682Z,96261.62
2022-11-20T18:05:43.188Z,96259.39
2022-11-20T18:08:09.646Z,96253.61
2022-11-20T18:10:36.787Z,96251.92
2022-11-20T18:13:03.237Z,96252.67
2022-11-20T18:15:29.805Z,96253.69
2022-11-20T18:17:56.620Z,96254.52
2022-11-20T18:20:33.962Z,96245.38
2022-11-20T18:23:03.215Z,96239.40
2022-11-20T18:25:29.741Z,96243.29
2022-11-20T18:27:56.281Z,96244.13
2022-11-20T18:30:23.036Z,96236.83
2022-11-20T18:32:49.769Z,96229.75
2022-11-20T18:35:16.505Z,96231.05
2022-11-20T18:37:42.962Z,96233.59
2022-11-20T18:40:09.849Z,96232.34
2022-11-20T18:42:55.031Z,96230.66
2022-11-20T18:45:21.500Z,96238.17
2022-11-20T18:47:47.972Z,96245.17
2022-11-20T18:50:14.664Z,96242.64
2022-11-20T18:52:43.779Z,96238.45
2022-11-20T18:55:11.360Z,96236.98
2022-11-20T18:57:37.910Z,96235.91
2022-11-20T19:00:08.979Z,96236.32
2022-11-20T19:02:41.093Z,96236.45
2022-11-20T19:05:09.815Z,96243.02
2022-11-20T19:07:36.356Z,96246.44
2022-11-20T19:10:04.160Z,96245.30
2022-11-20T19:12:31.205Z,96246.77
2022-11-20T19:14:57.706Z,96240.97
2022-11-20T19:17:24.316Z,96244.65
2022-11-20T19:19:51.526Z,96240.11
2022-11-20T19:22:19.191Z,96237.75
2022-11-20T19:24:46.030Z,96230.86
2022-11-20T19:27:12.900Z,96220.94
2022-11-20T19:29:39.926Z,96219.18
2022-11-20T19:32:06.792Z,96218.62
2022-11-20T19:34:33.223Z,96222.98
2022-11-20T19:37:00.428Z,96235.05
2022-11-20T19:39:27.391Z,96238.03
2022-11-20T19:41:54.168Z,96234.94
2022-11-20T19:44:20.818Z,96237.85
2022-11-20T19:46:47.401Z,96240.92
2022-11-20T19:49:14.294Z,96240.94
2022-11-20T19:51:48.458Z,96235.00
2022-11-20T19:54:16.002Z,96224.95
2022-11-20T19:56:42.900Z,96223.16
2022-11-20T19:59:09.753Z,96224.98
2022-11-20T20:01:36.433Z,96226.46
2022-11-20T20:04:04.730Z,96228.37
2022-11-20T20:06:31.873Z,96236.83
2022-11-20T20:09:05.962Z,96245.30
2022-11-20T20:11:33.585Z,96249.00
2022-11-20T20:14:01.061Z,96247.33
2022-11-20T20:16:28.206Z,96247.41
2022-11-20T20:18:55.890Z,96238.96
2022-11-20T20:21:22.536Z,96239.98
2022-11-20T20:23:55.070Z,96239.79
2022-11-20T20:26:23.099Z,96242.33
2022-11-20T20:28:50.176Z,96233.86
2022-11-20T20:31:18.193Z,96224.42
2022-11-20T20:33:45.060Z,96224.63
2022-11-20T20:36:12.881Z,96234.11
2022-11-20T20:38:39.541Z,96229.40
2022-11-20T20:41:06.056Z,96235.23
2022-11-20T20:43:52.654Z,96237.54
2022-11-20T20:46:19.414Z,96237.51
2022-11-20T20:48:50.225Z,96236.45
2022-11-20T20:51:19.617Z,96233.06
2022-11-20T20:53:46.127Z,96232.73
2022-11-20T20:56:13.376Z,96231.98
2022-11-20T20:58:40.300Z,96234.73
2022-11-20T21:01:10.125Z,96234.55
2022-11-20T21:03:37.156Z,96233.81
2022-11-20T21:06:04.762Z,96240.98
2022-11-20T21:08:31.400Z,96246.02
2022-11-20T21:11:02.262Z,96241.98
2022-11-20T21:13:29.480Z,96245.97
2022-11-20T21:15:55.997Z,96247.79
2022-11-20T21:18:23.703Z,96240.05
2022-11-20T21:21:09.260Z,96242.10
2022-11-20T21:23:36.853Z,96247.49
2022-11-20T21:26:05.895Z,96241.06
2022-11-20T21:28:33.585Z,96233.54
2022-11-20T21:31:04.093Z,96228.21
2022-11-20T21:33:41.085Z,96222.98
2022-11-20T21:36:08.377Z,96219.73
2022-11-20T21:38:35.429Z,96221.58
2022-11-20T21:41:03.799Z,96216.33
2022-11-20T21:43:30.388Z,96211.12
2022-11-20T21:46:04.566Z,96210.11
2022-11-20T21:48:31.907Z,96207.92
2022-11-20T21:51:15.422Z,96211.23
2022-11-20T21:53:42.268Z,96212.34
2022-11-20T21:56:09.847Z,96211.85
2022-11-20T21:58:37.107Z,96199.65
2022-11-20T22:01:11.002Z,96199.12
2022-11-20T22:03:37.762Z,96200.86
2022-11-20T22:06:04.792Z,96201.18
2022-11-20T22:08:31.276Z,96197.15
2022-11-20T22:10:59.217Z,96201.86
2022-11-20T22:13:45.007Z,96206.77
2022-11-20T22:16:11.790Z,96211.64
2022-11-20T22:18:43.353Z,96215.73
2022-11-20T22:21:10.053Z,96212.38
2022-11-20T22:23:37.021Z,96211.48
2022-11-20T22:26:03.864Z,96208.49
2022-11-20T22:28:30.825Z,96202.46
2022-11-20T22:31:00.902Z,96197.59
2022-11-20T22:33:28.285Z,96193.77
2022-11-20T22:36:08.652Z,96182.11
2022-11-20T22:38:39.248Z,96171.94
2022-11-20T22:41:07.379Z,96166.95
2022-11-20T22:43:34.553Z,96165.67
2022-11-20T22:46:08.440Z,96167.67
2022-11-20T22:48:37.720Z,96162.91
2022-11-20T22:51:12.372Z,96155.94
2022-11-20T22:53:39.148Z,96147.17
2022-11-20T22:56:06.384Z,96134.16
2022-11-20T22:58:34.273Z,96128.70
2022-11-20T23:01:10.311Z,96127.05
2022-11-20T23:03:37.522Z,96119.81
2022-11-20T23:06:04.278Z,96115.15
2022-11-20T23:08:30.971Z,96111.29
2022-11-20T23:10:58.244Z,96110.95
2022-11-20T23:13:25.035Z,96108.15
2022-11-20T23:15:51.677Z,96103.91
2022-11-20T23:18:18.386Z,96102.55
2022-11-20T23:20:46.219Z,96097.72
2022-11-20T23:23:32.548Z,96099.92
2022-11-20T23:26:00.097Z,96096.73
2022-11-20T23:28:26.672Z,96088.64
2022-11-20T23:30:53.152Z,96089.48
2022-11-20T23:33:19.666Z,96089.23
2022-11-20T23:35:46.642Z,96089.55
2022-11-20T23:38:13.144Z,96092.16
2022-11-20T23:40:41.409Z,96087.17
2022-11-20T23:43:17.159Z,96088.86
2022-11-20T23:45:44.876Z,96088.29
2022-11-20T23:48:12.160Z,96090.59
2022-11-20T23:53:20.253Z,96089.74
2022-11-20T23:55:47.844Z,96085.88
2022-11-20T23:58:14.814Z,96077.79
